Time;durP1;ratioP1;P1;durP2;ratioP2;P2;SDS_P1;SDS_P2;PMS_P1;PMS_P2;Temp;Humidity;BMP_temperature;BMP_pressure;BME280_temperature;BME280_humidity;BME280_pressure;Samples;Min_cycle;Max_cycle;Signal;HPM_P1;HPM_P2
2022/01/20 00:03:22;;;;;;;14.35;8.43;;;;;;;-2.37;65.39;99693.25;4292005;33;34435;-75
2022/01/20 00:28:03;;;;;;;14.87;6.60;;;;;;;-2.34;64.27;99695.09;4304000;33;34206;-76
2022/01/20 00:33:40;;;;;;;15.00;9.55;;;;;;;-2.88;69.69;99698.53;4304577;33;35043;-75
2022/01/20 00:38:40;;;;;;;25.45;9.52;;;;;;;-2.73;72.49;99711.13;4305480;33;33451;-75
2022/01/20 00:41:14;;;;;;;11.52;6.15;;;;;;;-1.40;64.98;99712.88;4304870;33;34061;-74
2022/01/20 00:43:42;;;;;;;15.55;8.63;;;;;;;-1.17;61.23;99710.44;4278163;33;35677;-75
2022/01/20 00:46:11;;;;;;;20.90;8.93;;;;;;;-2.69;64.41;99707.03;4290521;33;35336;-74
2022/01/20 00:48:39;;;;;;;12.73;7.85;;;;;;;-3.10;67.63;99716.09;4277945;33;33038;-75
2022/01/20 00:51:08;;;;;;;16.30;7.80;;;;;;;-1.93;64.28;99709.72;4277942;33;33794;-75
2022/01/20 00:53:39;;;;;;;12.88;5.82;;;;;;;-2.87;69.30;99715.53;4303108;33;34621;-75
2022/01/20 00:56:07;;;;;;;9.25;4.97;;;;;;;-1.39;61.70;99714.62;4315949;33;34866;-74
2022/01/20 00:58:35;;;;;;;10.50;6.20;;;;;;;-1.50;61.81;99709.88;4304979;33;33029;-76
2022/01/20 01:01:03;;;;;;;17.95;7.22;;;;;;;-1.70;62.96;99706.47;4305419;33;33786;-75
2022/01/20 01:03:31;;;;;;;13.50;7.30;;;;;;;-2.05;62.92;99715.94;4304631;33;35070;-75
2022/01/20 01:08:46;;;;;;;13.70;6.40;;;;;;;-2.75;63.89;99714.41;4290257;33;33509;-75
2022/01/20 01:11:14;;;;;;;15.00;6.75;;;;;;;-2.66;62.34;99717.38;4297165;33;33986;-74
2022/01/20 01:13:42;;;;;;;12.15;6.37;;;;;;;-2.34;62.82;99712.94;4291792;33;33807;-75
2022/01/20 01:16:12;;;;;;;14.43;7.20;;;;;;;-2.85;64.34;99713.06;4305205;33;34471;-75
2022/01/20 01:21:30;;;;;;;10.90;6.90;;;;;;;-2.61;65.44;99718.50;4303558;33;34013;-74
2022/01/20 01:23:58;;;;;;;18.70;7.25;;;;;;;-1.99;64.19;99718.78;4289683;33;34915;-75
2022/01/20 01:26:28;;;;;;;13.80;6.10;;;;;;;-1.98;61.82;99716.28;4301704;33;34594;-74
2022/01/20 01:28:58;;;;;;;15.90;6.37;;;;;;;-1.80;61.09;99707.72;4305333;33;34311;-74
2022/01/20 01:31:33;;;;;;;12.70;6.45;;;;;;;-1.85;62.83;99693.88;4304542;33;36026;-74
2022/01/20 01:34:10;;;;;;;16.50;6.93;;;;;;;-1.67;64.17;99699.81;4303878;33;35151;-75
2022/01/20 01:36:56;;;;;;;14.38;7.40;;;;;;;-2.68;69.03;99679.06;4304541;33;34383;-75
2022/01/20 01:39:25;;;;;;;13.57;7.72;;;;;;;-1.67;66.39;99675.97;4305443;33;33611;-75
2022/01/20 01:41:53;;;;;;;14.85;7.18;;;;;;;-2.93;69.56;99671.94;4291414;33;34700;-75
2022/01/20 01:44:25;;;;;;;22.10;10.27;;;;;;;-2.51;69.87;99666.25;4304106;33;34868;-75
2022/01/20 01:46:54;;;;;;;25.67;9.38;;;;;;;-2.21;68.72;99651.47;4304104;33;34479;-76
2022/01/20 01:49:22;;;;;;;28.23;11.57;;;;;;;-2.62;73.29;99641.94;4292004;33;33581;-75
2022/01/20 01:51:50;;;;;;;17.12;10.60;;;;;;;-2.19;74.22;99649.87;4291249;33;32966;-76
2022/01/20 01:54:19;;;;;;;19.85;10.48;;;;;;;-1.96;74.43;99658.56;4292228;33;35936;-76
2022/01/20 01:56:48;;;;;;;29.75;9.70;;;;;;;-0.62;70.05;99633.44;4304116;33;35316;-76
2022/01/20 01:59:18;;;;;;;20.95;9.88;;;;;;;-0.97;70.93;99637.13;4305204;33;33500;-76
2022/01/20 02:01:47;;;;;;;16.77;8.07;;;;;;;-0.85;70.75;99631.66;4314706;33;34068;-76
2022/01/20 02:04:19;;;;;;;16.08;8.45;;;;;;;-1.64;72.69;99630.13;4292228;33;35993;-76
2022/01/20 02:07:24;;;;;;;21.33;8.27;;;;;;;-1.52;73.89;99625.53;4303980;33;34906;-75
2022/01/20 02:20:39;;;;;;;22.58;9.70;;;;;;;-1.03;71.68;99575.56;4303028;33;33772;-76
2022/01/20 02:23:07;;;;;;;20.37;9.68;;;;;;;-1.39;74.65;99589.47;4304229;33;34692;-76
2022/01/20 02:25:37;;;;;;;21.62;10.98;;;;;;;-1.14;74.07;99582.81;4291704;33;35022;-76
2022/01/20 02:28:09;;;;;;;19.42;9.60;;;;;;;-1.46;73.86;99576.41;4291064;33;33779;-76
2022/01/20 02:30:39;;;;;;;19.30;9.88;;;;;;;-0.58;71.37;99571.34;4302245;33;33443;-76
2022/01/20 02:33:10;;;;;;;17.75;9.45;;;;;;;0.46;66.89;99557.94;4303932;33;33891;-75
2022/01/20 02:35:43;;;;;;;19.27;8.30;;;;;;;-0.35;69.19;99567.88;4291037;33;35001;-76
2022/01/20 02:46:34;;;;;;;20.00;9.77;;;;;;;-0.49;69.21;99559.72;4293792;33;35679;-76
2022/01/20 02:49:05;;;;;;;22.35;10.85;;;;;;;-0.23;68.16;99553.88;4303466;33;35243;-76
2022/01/20 02:51:34;;;;;;;35.40;12.15;;;;;;;-0.54;69.36;99554.44;4290777;33;33496;-75
2022/01/20 02:54:08;;;;;;;17.45;9.80;;;;;;;-0.96;71.70;99560.53;4290676;33;34069;-76
2022/01/20 02:56:36;;;;;;;23.95;12.43;;;;;;;0.41;67.56;99544.09;4291497;33;35748;-77
2022/01/20 02:59:04;;;;;;;22.73;11.07;;;;;;;-1.07;71.47;99555.81;4301628;33;34502;-76
2022/01/20 03:01:32;;;;;;;22.55;9.70;;;;;;;-1.53;73.36;99539.53;4303553;33;33662;-75
2022/01/20 03:04:02;;;;;;;16.15;10.43;;;;;;;0.30;66.99;99536.06;4303542;33;34907;-77
2022/01/20 03:06:31;;;;;;;20.25;11.12;;;;;;;-0.62;68.43;99536.25;4304155;33;36021;-76
2022/01/20 03:08:59;;;;;;;19.05;9.63;;;;;;;-2.02;75.09;99546.00;4303381;33;34429;-76
2022/01/20 03:11:28;;;;;;;21.10;10.02;;;;;;;-0.90;70.82;99536.00;4304537;33;33513;-75
2022/01/20 03:13:57;;;;;;;22.37;10.13;;;;;;;-0.48;67.00;99521.37;4290345;33;34026;-75
2022/01/20 03:16:25;;;;;;;21.12;11.90;;;;;;;-0.89;69.96;99528.41;4289723;33;35072;-75
2022/01/20 03:18:53;;;;;;;17.15;9.80;;;;;;;-0.48;67.70;99521.37;4300981;33;35343;-76
2022/01/20 03:21:21;;;;;;;16.75;8.45;;;;;;;-0.59;67.67;99518.44;4303871;33;33457;-76
2022/01/20 03:23:49;;;;;;;26.30;12.65;;;;;;;-1.04;67.70;99515.03;4303305;33;33912;-76
2022/01/20 03:26:17;;;;;;;18.58;8.30;;;;;;;-1.62;71.44;99522.16;4303561;33;35042;-75
2022/01/20 03:28:45;;;;;;;24.55;9.48;;;;;;;-1.78;71.48;99510.44;4303144;33;34372;-75
2022/01/20 03:31:14;;;;;;;20.90;11.20;;;;;;;-1.03;68.04;99499.75;4304164;33;33525;-75
2022/01/20 03:33:42;;;;;;;32.17;11.32;;;;;;;-1.41;68.81;99496.59;4295235;33;32380;-75
2022/01/20 03:36:10;;;;;;;19.12;9.35;;;;;;;-0.74;66.80;99492.34;4304656;33;35173;-75
2022/01/20 03:38:41;;;;;;;20.48;10.82;;;;;;;-0.39;65.84;99490.16;4280217;33;33883;-75
2022/01/20 03:41:10;;;;;;;21.35;8.77;;;;;;;-1.09;67.70;99489.31;4303034;33;33680;-76
2022/01/20 03:43:38;;;;;;;20.27;11.68;;;;;;;-1.69;68.70;99478.41;4304944;33;34731;-75
2022/01/20 03:46:12;;;;;;;25.37;11.85;;;;;;;-1.35;67.43;99481.50;4305987;33;35850;-75
2022/01/20 03:48:49;;;;;;;19.12;10.45;;;;;;;-2.33;70.81;99486.03;4305059;33;35137;-75
2022/01/20 03:51:21;;;;;;;20.52;10.75;;;;;;;-1.50;69.46;99480.94;4293599;33;33785;-75
2022/01/20 03:53:51;;;;;;;21.65;10.82;;;;;;;-1.60;69.52;99478.81;4282267;33;33834;-76
2022/01/20 03:56:21;;;;;;;26.00;11.35;;;;;;;-1.53;69.23;99476.56;4291495;33;35186;-75
2022/01/20 03:58:51;;;;;;;21.30;10.00;;;;;;;-1.65;69.21;99481.16;4288215;33;34595;-75
2022/01/20 04:01:19;;;;;;;26.33;11.35;;;;;;;-1.36;68.00;99474.69;4315802;33;32368;-75
2022/01/20 04:03:49;;;;;;;22.35;9.52;;;;;;;-1.69;70.70;99466.56;4292285;33;34746;-75
2022/01/20 04:06:22;;;;;;;21.05;10.07;;;;;;;-1.25;68.84;99469.09;4305633;33;35064;-75
2022/01/20 04:08:50;;;;;;;20.65;10.82;;;;;;;-1.51;70.10;99466.41;4304696;33;34468;-75
2022/01/20 04:11:23;;;;;;;26.55;13.13;;;;;;;-1.68;69.58;99472.53;4305865;33;33532;-76
2022/01/20 04:13:52;;;;;;;32.95;12.60;;;;;;;-1.94;69.56;99462.09;4291275;33;32770;-75
2022/01/20 04:16:21;;;;;;;24.10;10.48;;;;;;;-1.91;71.39;99459.69;4305830;33;34919;-74
2022/01/20 04:18:54;;;;;;;21.87;12.43;;;;;;;-1.93;72.42;99463.88;4304022;33;35368;-75
2022/01/20 04:21:25;;;;;;;13.85;8.32;;;;;;;-1.46;68.91;99456.38;4304269;33;33402;-74
2022/01/20 04:23:54;;;;;;;27.30;10.68;;;;;;;-1.22;65.68;99462.44;4304597;33;33244;-74
2022/01/20 04:26:23;;;;;;;18.15;9.52;;;;;;;-2.08;69.68;99481.97;4292483;33;35952;-75
2022/01/20 04:28:56;;;;;;;18.10;8.68;;;;;;;-1.74;69.81;99466.34;4313963;33;35248;-74
2022/01/20 04:31:27;;;;;;;41.95;9.60;;;;;;;-1.39;69.35;99466.87;4293332;33;33529;-75
2022/01/20 04:33:57;;;;;;;18.30;9.25;;;;;;;-1.55;68.81;99459.44;4304718;33;35769;-77
2022/01/20 04:36:27;;;;;;;29.52;9.55;;;;;;;-1.47;69.46;99455.50;4304597;33;35074;-77
2022/01/20 04:38:56;;;;;;;17.55;8.63;;;;;;;-1.57;69.38;99461.94;4291920;33;33659;-77
2022/01/20 04:41:25;;;;;;;22.15;11.40;;;;;;;-1.89;70.72;99462.31;4295713;33;34594;-78
2022/01/20 04:43:53;;;;;;;18.67;9.65;;;;;;;-1.65;69.87;99476.06;4303774;33;34111;-78
2022/01/20 04:46:34;;;;;;;19.37;9.95;;;;;;;-1.52;69.44;99472.31;4304989;33;34913;-76
2022/01/20 04:57:24;;;;;;;14.77;8.48;;;;;;;-1.41;69.96;99486.38;4290498;33;34944;-77
2022/01/20 04:59:54;;;;;;;23.58;9.95;;;;;;;-1.87;71.82;99482.00;4290665;33;34567;-78
2022/01/20 05:02:25;;;;;;;26.17;11.27;;;;;;;-1.41;69.81;99475.28;4314782;33;33408;-76
2022/01/20 05:04:55;;;;;;;23.40;9.02;;;;;;;-1.42;69.65;99471.88;4305089;33;33900;-77
2022/01/20 05:07:28;;;;;;;22.05;10.27;;;;;;;-1.76;69.75;99462.88;4303601;33;34972;-77
2022/01/20 05:09:57;;;;;;;23.40;9.70;;;;;;;-1.52;70.55;99462.09;4290832;33;33658;-77
2022/01/20 05:12:37;;;;;;;24.63;11.15;;;;;;;-1.36;69.01;99467.00;4314792;33;33010;-76
2022/01/20 05:15:06;;;;;;;22.20;9.65;;;;;;;-0.35;65.52;99466.44;4305004;33;34791;-77
2022/01/20 05:17:36;;;;;;;23.23;12.07;;;;;;;-2.63;73.37;99465.19;4290981;33;36027;-76
2022/01/20 05:20:04;;;;;;;24.73;11.90;;;;;;;-2.00;72.47;99466.97;4304709;33;35210;-77
2022/01/20 05:22:32;;;;;;;26.67;11.55;;;;;;;-1.43;69.66;99464.12;4290775;33;32827;-76
2022/01/20 05:25:04;;;;;;;22.87;12.02;;;;;;;-1.65;69.42;99462.44;4290787;33;33791;-76
2022/01/20 05:27:33;;;;;;;21.23;9.63;;;;;;;-1.35;68.43;99472.97;4304160;33;35878;-76
2022/01/20 05:30:01;;;;;;;25.12;10.63;;;;;;;-1.24;67.75;99473.41;4304817;33;34448;-75
2022/01/20 05:32:29;;;;;;;16.77;9.55;;;;;;;-1.43;68.66;99472.69;4304242;33;33561;-75
2022/01/20 05:34:57;;;;;;;20.75;10.13;;;;;;;-1.00;68.31;99459.00;4303721;33;31758;-78
2022/01/20 05:37:26;;;;;;;20.58;10.73;;;;;;;-1.49;70.13;99462.22;4304335;33;35147;-76
2022/01/20 05:39:54;;;;;;;23.12;11.23;;;;;;;-1.96;70.81;99464.62;4289491;33;34266;-77
2022/01/20 05:42:22;;;;;;;24.48;12.75;;;;;;;-1.96;69.95;99466.28;4313670;33;33638;-76
2022/01/20 05:44:51;;;;;;;22.27;11.98;;;;;;;-1.49;68.23;99467.31;4304089;33;33787;-76
2022/01/20 05:47:27;;;;;;;28.95;12.32;;;;;;;-1.74;68.84;99461.25;4293808;33;34986;-79
2022/01/20 05:49:57;;;;;;;22.60;10.48;;;;;;;-1.81;70.30;99461.81;4303947;33;35168;-76
2022/01/20 05:52:26;;;;;;;21.42;11.35;;;;;;;-1.62;70.61;99463.44;4298066;33;33616;-77
2022/01/20 05:54:55;;;;;;;18.42;9.25;;;;;;;-1.47;71.61;99455.50;4279036;33;32773;-75
2022/01/20 05:57:23;;;;;;;20.27;10.60;;;;;;;-1.22;73.44;99451.31;4303319;33;35100;-75
2022/01/20 05:59:51;;;;;;;17.05;8.75;;;;;;;-1.42;76.30;99453.97;4289607;33;34474;-75
2022/01/20 06:02:33;;;;;;;17.25;8.63;;;;;;;-1.07;76.86;99462.13;4301847;33;33622;-76
2022/01/20 06:05:03;;;;;;;24.02;11.65;;;;;;;-0.42;74.72;99464.50;4303372;33;34053;-76
2022/01/20 06:07:32;;;;;;;18.17;9.93;;;;;;;-0.83;76.30;99468.97;4301363;33;33826;-75
2022/01/20 06:10:01;;;;;;;19.62;11.02;;;;;;;-0.23;73.15;99465.97;4302188;33;35306;-75
2022/01/20 06:12:33;;;;;;;17.12;9.80;;;;;;;0.05;68.40;99467.78;4304527;33;33693;-76
2022/01/20 06:15:01;;;;;;;22.15;11.45;;;;;;;-1.28;70.63;99469.00;4290955;33;33853;-76
2022/01/20 06:17:33;;;;;;;24.37;11.75;;;;;;;-0.91;69.50;99461.03;4300771;33;35034;-76
2022/01/20 06:20:04;;;;;;;20.98;9.52;;;;;;;-0.75;72.25;99457.34;4304017;33;34442;-75
2022/01/20 06:22:32;;;;;;;18.77;10.68;;;;;;;-0.97;74.85;99454.00;4312819;33;34521;-74
2022/01/20 06:25:02;;;;;;;20.95;9.57;;;;;;;-0.89;76.05;99448.31;4291693;33;34110;-78
2022/01/20 06:27:30;;;;;;;22.23;10.70;;;;;;;-0.90;75.78;99444.00;4304609;33;34350;-76
2022/01/20 06:29:58;;;;;;;24.85;9.43;;;;;;;-1.05;77.22;99447.72;4301351;33;35079;-75
2022/01/20 06:32:27;;;;;;;19.20;9.10;;;;;;;-0.54;74.88;99441.91;4304528;33;33388;-76
2022/01/20 06:34:55;;;;;;;19.27;9.27;;;;;;;-0.33;74.99;99444.31;4304564;33;33902;-77
2022/01/20 06:37:23;;;;;;;21.08;7.87;;;;;;;-0.43;74.07;99453.34;4302598;33;34979;-77
2022/01/20 06:39:51;;;;;;;28.52;10.38;;;;;;;-0.51;74.88;99464.12;4303544;33;35134;-76
2022/01/20 06:42:20;;;;;;;23.42;11.32;;;;;;;-0.55;75.13;99462.28;4309951;33;33608;-76
2022/01/20 06:44:47;;;;;;;19.17;9.00;;;;;;;-0.89;76.51;99463.62;4303524;33;33946;-77
2022/01/20 06:47:16;;;;;;;18.70;9.43;;;;;;;-0.78;77.33;99467.44;4303649;33;35901;-75
2022/01/20 06:49:45;;;;;;;15.20;9.00;;;;;;;-0.24;75.41;99465.09;4305548;33;34515;-75
2022/01/20 06:52:14;;;;;;;19.77;9.57;;;;;;;-0.27;75.16;99453.91;4314656;33;33805;-75
2022/01/20 06:54:43;;;;;;;22.13;8.63;;;;;;;-0.35;75.08;99445.06;4303366;33;34731;-75
2022/01/20 06:57:22;;;;;;;18.77;9.65;;;;;;;-0.48;76.18;99444.66;4304420;33;35166;-77
2022/01/20 06:59:50;;;;;;;10.77;6.10;;;;;;;-0.18;75.07;99443.09;4303360;33;34057;-76
2022/01/20 07:02:18;;;;;;;14.95;7.18;;;;;;;-0.03;74.34;99438.50;4304356;33;33877;-75
2022/01/20 07:04:48;;;;;;;22.02;8.40;;;;;;;0.56;72.56;99434.44;4301960;33;34040;-75
2022/01/20 07:07:18;;;;;;;25.25;9.23;;;;;;;0.37;72.47;99437.22;4302620;33;34960;-75
2022/01/20 07:09:47;;;;;;;19.65;9.95;;;;;;;0.47;72.74;99430.72;4303470;33;34459;-76
2022/01/20 07:12:15;;;;;;;20.95;9.68;;;;;;;0.73;72.55;99428.94;4295938;33;31995;-77
2022/01/20 07:14:44;;;;;;;15.60;7.97;;;;;;;0.65;72.24;99440.66;4302514;33;33574;-75
2022/01/20 07:17:12;;;;;;;18.15;9.18;;;;;;;1.50;69.81;99425.97;4299663;33;38098;-76
2022/01/20 07:19:40;;;;;;;15.48;7.82;;;;;;;0.55;73.36;99431.81;4294261;33;34700;-76
2022/01/20 07:22:09;;;;;;;19.95;9.60;;;;;;;1.18;71.76;99422.53;4296043;33;32113;-77
2022/01/20 07:24:37;;;;;;;15.00;8.88;;;;;;;0.99;71.95;99421.13;4286818;33;33294;-77
2022/01/20 07:27:08;;;;;;;15.40;8.27;;;;;;;0.87;72.51;99414.84;4300399;33;36939;-77
2022/01/20 07:29:36;;;;;;;12.13;6.97;;;;;;;0.85;73.15;99407.94;4288932;33;34563;-76
2022/01/20 07:32:06;;;;;;;18.15;7.53;;;;;;;1.65;71.11;99411.00;4289771;33;34432;-77
2022/01/20 07:34:35;;;;;;;17.75;9.80;;;;;;;1.32;72.15;99405.81;4288629;33;33745;-77
2022/01/20 07:37:05;;;;;;;18.23;8.88;;;;;;;1.39;72.04;99407.72;4289627;33;35419;-77
2022/01/20 07:39:33;;;;;;;16.55;8.55;;;;;;;1.55;71.40;99411.56;4288888;33;34481;-77
2022/01/20 07:42:02;;;;;;;13.85;8.20;;;;;;;1.60;71.08;99415.13;4287431;33;34417;-78
2022/01/20 07:44:40;;;;;;;15.23;7.30;;;;;;;1.92;70.12;99404.81;4288418;33;33832;-76
2022/01/20 07:47:09;;;;;;;19.08;8.00;;;;;;;1.88;70.21;99400.44;4288409;33;34915;-78
2022/01/20 07:49:44;;;;;;;17.58;9.15;;;;;;;1.68;70.14;99403.38;4291223;33;34515;-78
2022/01/20 07:52:17;;;;;;;16.73;8.77;;;;;;;1.65;70.78;99405.00;4288549;33;34176;-79
2022/01/20 07:54:46;;;;;;;24.77;8.45;;;;;;;2.23;69.38;99403.88;4287124;33;34666;-77
2022/01/20 07:57:14;;;;;;;17.55;7.85;;;;;;;2.07;69.15;99399.22;4287708;33;34932;-77
2022/01/20 07:59:42;;;;;;;22.23;8.75;;;;;;;2.17;69.43;99396.03;4299120;33;34029;-77
2022/01/20 08:02:10;;;;;;;20.23;9.98;;;;;;;2.26;68.77;99396.25;4287965;33;33562;-77
2022/01/20 08:04:38;;;;;;;25.08;8.95;;;;;;;2.35;68.87;99404.97;4286226;33;33974;-77
2022/01/20 08:07:08;;;;;;;13.88;7.60;;;;;;;2.16;69.28;99408.84;4288737;33;34651;-78
2022/01/20 08:09:37;;;;;;;15.18;9.48;;;;;;;2.70;67.99;99403.22;4288236;33;35214;-79
2022/01/20 08:12:23;;;;;;;16.17;8.15;;;;;;;2.45;67.99;99412.97;4289111;33;33405;-80
2022/01/20 08:14:52;;;;;;;17.65;9.15;;;;;;;3.09;66.29;99402.34;4302554;33;33795;-78
2022/01/20 08:17:21;;;;;;;22.62;11.25;;;;;;;2.60;68.45;99407.28;4287567;33;34616;-77
2022/01/20 08:19:50;;;;;;;26.15;11.02;;;;;;;2.71;67.14;99406.66;4287196;33;33385;-77
2022/01/20 08:22:19;;;;;;;19.60;9.48;;;;;;;2.79;68.32;99413.72;4289957;33;33283;-79
2022/01/20 08:25:07;;;;;;;20.48;11.23;;;;;;;3.15;66.78;99407.59;4289566;33;34624;-78
2022/01/20 08:27:39;;;;;;;22.48;9.88;;;;;;;2.76;67.16;99407.63;4313930;33;35168;-78
2022/01/20 08:30:10;;;;;;;14.70;7.47;;;;;;;2.84;67.72;99411.22;4288328;33;34259;-78
2022/01/20 08:32:39;;;;;;;16.98;8.02;;;;;;;3.29;66.01;99414.72;4289154;33;34151;-78
2022/01/20 08:35:09;;;;;;;20.17;8.98;;;;;;;2.92;67.00;99413.97;4300652;33;32598;-78
2022/01/20 08:37:40;;;;;;;15.75;7.55;;;;;;;3.15;66.56;99417.88;4290301;33;35883;-78
2022/01/20 08:40:13;;;;;;;16.02;8.07;;;;;;;3.42;65.53;99416.69;4289313;33;35164;-78
2022/01/20 08:42:44;;;;;;;14.25;7.55;;;;;;;3.32;65.95;99414.75;4291323;33;34069;-78
2022/01/20 08:45:15;;;;;;;22.42;8.60;;;;;;;3.27;66.12;99412.13;4289266;33;34634;-77
2022/01/20 08:47:43;;;;;;;16.70;8.18;;;;;;;3.54;65.84;99406.63;4289889;33;34310;-78
2022/01/20 08:50:12;;;;;;;16.17;7.18;;;;;;;3.51;66.33;99392.81;4288942;33;34004;-78
2022/01/20 08:52:45;;;;;;;15.48;6.82;;;;;;;3.55;65.11;99387.78;4301488;33;33428;-78
2022/01/20 08:55:15;;;;;;;16.65;7.57;;;;;;;3.89;64.54;99393.50;4289354;33;33307;-79
2022/01/20 08:57:45;;;;;;;17.70;8.32;;;;;;;3.77;64.30;99390.72;4289694;33;36017;-78
2022/01/20 09:00:15;;;;;;;11.95;6.47;;;;;;;3.66;64.61;99395.69;4290386;33;33720;-78
2022/01/20 09:02:44;;;;;;;10.75;6.80;;;;;;;3.15;66.68;99387.00;4290075;33;33889;-79
2022/01/20 09:05:12;;;;;;;15.27;7.28;;;;;;;3.76;64.42;99397.59;4290198;33;33778;-78
2022/01/20 09:07:41;;;;;;;16.37;8.95;;;;;;;3.51;65.53;99397.97;4290985;33;35141;-79
2022/01/20 09:10:18;;;;;;;14.87;7.40;;;;;;;3.77;65.47;99394.16;4289014;33;34456;-77
2022/01/20 09:15:28;;;;;;;11.12;6.90;;;;;;;3.97;63.89;99407.41;4288537;33;33904;-78
2022/01/20 09:18:04;;;;;;;20.08;7.15;;;;;;;4.24;63.30;99413.84;4302744;33;35052;-78
2022/01/20 09:20:34;;;;;;;15.68;8.25;;;;;;;4.15;63.84;99422.28;4290933;33;34440;-78
2022/01/20 09:23:03;;;;;;;12.30;7.05;;;;;;;4.01;64.12;99420.31;4305372;33;33518;-79
2022/01/20 09:25:31;;;;;;;14.68;7.05;;;;;;;4.30;62.55;99416.50;4304618;33;33578;-78
2022/01/20 09:28:00;;;;;;;13.73;7.25;;;;;;;3.95;63.46;99409.09;4292416;33;35682;-78
2022/01/20 09:30:29;;;;;;;19.77;8.70;;;;;;;4.51;62.07;99412.53;4290819;33;33842;-78
2022/01/20 09:33:12;;;;;;;15.57;7.53;;;;;;;4.53;62.78;99411.69;4305107;33;33520;-78
2022/01/20 09:35:41;;;;;;;20.65;7.37;;;;;;;4.88;61.98;99410.47;4304561;33;34060;-79
2022/01/20 09:38:11;;;;;;;13.13;7.22;;;;;;;4.76;62.22;99418.88;4304165;33;35945;-78
2022/01/20 09:40:43;;;;;;;15.20;7.62;;;;;;;4.78;61.63;99408.59;4291117;33;33691;-78
2022/01/20 09:43:14;;;;;;;13.80;6.62;;;;;;;4.83;61.95;99415.53;4304224;33;32870;-78
2022/01/20 09:45:46;;;;;;;18.33;7.43;;;;;;;5.51;60.03;99412.09;4304306;33;34697;-78
2022/01/20 09:48:18;;;;;;;9.10;5.37;;;;;;;5.47;59.67;99418.06;4305015;33;35748;-78
2022/01/20 09:50:47;;;;;;;15.82;6.20;;;;;;;5.27;60.46;99416.97;4289820;33;34495;-77
2022/01/20 09:53:16;;;;;;;10.45;5.72;;;;;;;5.17;61.24;99410.84;4291493;33;34167;-79
2022/01/20 09:55:45;;;;;;;12.20;5.90;;;;;;;4.78;62.11;99418.91;4304333;33;34106;-78
2022/01/20 09:58:15;;;;;;;11.55;6.43;;;;;;;4.21;64.29;99411.22;4305246;33;34317;-79
2022/01/20 10:00:45;;;;;;;11.60;5.90;;;;;;;4.88;62.59;99410.47;4291134;33;34952;-79
2022/01/20 10:03:16;;;;;;;12.50;6.40;;;;;;;4.63;63.83;99411.84;4291992;33;33506;-79
2022/01/20 10:05:47;;;;;;;10.38;6.28;;;;;;;5.00;62.97;99404.59;4304465;33;33905;-79
2022/01/20 10:08:21;;;;;;;13.88;6.80;;;;;;;4.86;63.26;99407.00;4292073;33;35261;-78
2022/01/20 10:10:58;;;;;;;14.38;6.20;;;;;;;4.78;64.28;99409.47;4304124;33;35195;-77
2022/01/20 10:13:36;;;;;;;13.88;6.57;;;;;;;4.63;65.14;99412.69;4304338;33;33462;-78
2022/01/20 10:16:06;;;;;;;12.23;6.65;;;;;;;4.17;67.64;99414.59;4291141;33;33995;-79
2022/01/20 10:18:48;;;;;;;15.68;7.37;;;;;;;4.23;67.85;99412.09;4305066;33;34918;-78
2022/01/20 10:21:18;;;;;;;14.35;7.00;;;;;;;3.61;71.87;99407.59;4303739;33;34255;-79
2022/01/20 10:23:48;;;;;;;11.95;5.78;;;;;;;3.66;72.29;99397.41;4303804;33;32674;-76
2022/01/20 10:26:20;;;;;;;11.60;6.53;;;;;;;3.63;74.04;99395.62;4304033;33;33963;-76
2022/01/20 10:29:05;;;;;;;12.32;5.55;;;;;;;3.89;74.60;99390.06;4291513;33;33352;-78
2022/01/20 10:31:42;;;;;;;11.23;5.82;;;;;;;4.44;73.12;99372.88;4288504;33;34337;-78
2022/01/20 10:34:35;;;;;;;8.85;5.22;;;;;;;4.21;73.72;99380.28;4291675;33;34498;-79
2022/01/20 10:37:15;;;;;;;8.75;4.30;;;;;;;4.35;74.38;99373.63;4304988;33;33890;-77
2022/01/20 10:39:46;;;;;;;6.82;3.62;;;;;;;4.55;73.06;99370.44;4303994;33;35172;-77
2022/01/20 10:42:26;;;;;;;10.38;4.85;;;;;;;4.48;73.79;99376.37;4314549;33;35345;-78
2022/01/20 10:44:57;;;;;;;8.85;4.35;;;;;;;4.56;73.97;99369.63;4304102;33;33419;-78
2022/01/20 10:47:30;;;;;;;9.45;4.85;;;;;;;3.84;77.86;99363.38;4304641;33;34719;-78
2022/01/20 10:50:15;;;;;;;7.97;4.95;;;;;;;4.30;76.01;99364.09;4290771;33;34838;-78
2022/01/20 10:52:44;;;;;;;11.77;4.72;;;;;;;4.39;75.78;99358.19;4303960;33;34363;-76
2022/01/20 10:55:23;;;;;;;7.25;4.55;;;;;;;4.64;74.89;99365.44;4304012;33;33760;-77
2022/01/20 10:58:09;;;;;;;7.28;4.10;;;;;;;4.70;74.24;99347.47;4292033;33;34664;-78
2022/01/20 11:00:44;;;;;;;9.93;4.70;;;;;;;4.26;76.78;99352.00;4303664;33;35824;-76
2022/01/20 11:03:13;;;;;;;9.32;5.05;;;;;;;4.94;75.25;99343.44;4304722;33;35065;-78
2022/01/20 11:05:45;;;;;;;7.72;3.92;;;;;;;5.01;74.68;99331.47;4313704;33;33450;-78
2022/01/20 11:08:15;;;;;;;6.37;3.37;;;;;;;4.65;75.62;99325.03;4292123;33;33920;-78
2022/01/20 11:10:44;;;;;;;9.45;4.65;;;;;;;4.40;75.87;99313.53;4303398;33;35089;-78
2022/01/20 11:13:14;;;;;;;5.43;3.37;;;;;;;5.13;74.29;99314.44;4304418;33;32838;-78
2022/01/20 11:15:43;;;;;;;8.40;4.37;;;;;;;4.79;73.93;99322.63;4303486;33;33450;-78
2022/01/20 11:18:13;;;;;;;10.85;3.58;;;;;;;5.28;72.51;99318.88;4304161;33;33352;-78
2022/01/20 11:20:48;;;;;;;7.70;3.55;;;;;;;5.26;72.07;99319.72;4303373;33;34915;-77
2022/01/20 11:23:17;;;;;;;5.03;3.15;;;;;;;5.61;70.36;99322.66;4291367;33;34577;-79
2022/01/20 11:25:45;;;;;;;5.20;3.58;;;;;;;5.22;71.26;99318.81;4303219;33;34366;-80
2022/01/20 11:28:25;;;;;;;8.60;5.00;;;;;;;5.25;70.48;99310.25;4303279;33;33724;-78
2022/01/20 11:31:04;;;;;;;5.90;3.35;;;;;;;4.86;72.28;99312.41;4295139;33;35188;-78
2022/01/20 11:33:40;;;;;;;10.25;6.03;;;;;;;5.41;70.42;99288.88;4304300;33;34451;-79
2022/01/20 11:36:21;;;;;;;8.32;5.57;;;;;;;5.32;69.95;99274.16;4301361;33;33484;-78
2022/01/20 11:39:10;;;;;;;7.15;3.75;;;;;;;6.02;67.63;99251.50;4302817;33;33354;-77
2022/01/20 11:41:45;;;;;;;6.93;3.03;;;;;;;5.13;70.67;99251.59;4303027;33;35532;-79
2022/01/20 11:44:15;;;;;;;5.45;3.12;;;;;;;4.62;71.71;99251.06;4302957;33;35074;-79
2022/01/20 11:46:46;;;;;;;7.18;3.20;;;;;;;4.97;70.90;99240.25;4303250;33;35288;-77
2022/01/20 11:49:17;;;;;;;5.57;3.78;;;;;;;5.35;69.53;99244.06;4290449;33;33038;-79
2022/01/20 11:51:54;;;;;;;5.20;3.22;;;;;;;4.90;71.14;99247.06;4303085;33;34518;-80
2022/01/20 11:54:39;;;;;;;7.85;3.78;;;;;;;5.07;70.92;99241.25;4304477;33;34870;-77
2022/01/20 11:57:11;;;;;;;5.70;3.35;;;;;;;5.17;71.03;99247.34;4304687;33;33041;-79
2022/01/20 11:59:54;;;;;;;5.97;3.22;;;;;;;5.12;70.36;99249.91;4304810;33;33489;-79
2022/01/20 12:02:34;;;;;;;6.50;3.25;;;;;;;5.16;70.24;99241.31;4305905;33;34946;-79
2022/01/20 12:05:26;;;;;;;6.28;3.35;;;;;;;4.56;72.01;99238.09;4303789;33;34339;-78
2022/01/20 12:08:06;;;;;;;7.28;3.33;;;;;;;5.65;68.01;99230.56;4306085;33;33460;-79
2022/01/20 12:10:36;;;;;;;4.47;3.10;;;;;;;4.80;70.97;99223.75;4304041;33;33979;-78
2022/01/20 12:13:09;;;;;;;5.85;3.67;;;;;;;5.30;68.83;99225.97;4290313;33;35177;-78
2022/01/20 12:15:55;;;;;;;8.75;4.00;;;;;;;6.05;66.04;99216.19;4284977;33;34350;-79
2022/01/20 12:18:25;;;;;;;6.82;3.60;;;;;;;6.01;65.01;99218.75;4316544;33;34458;-78
2022/01/20 12:20:53;;;;;;;5.00;2.78;;;;;;;5.13;67.29;99207.72;4304436;33;34005;-79
2022/01/20 12:23:24;;;;;;;7.03;3.83;;;;;;;6.09;63.84;99217.06;4304452;33;35435;-78
2022/01/20 12:25:52;;;;;;;6.53;3.03;;;;;;;6.29;63.44;99205.97;4291965;33;34464;-78
2022/01/20 12:28:20;;;;;;;6.62;3.08;;;;;;;6.57;61.79;99205.19;4304841;33;33566;-78
2022/01/20 12:30:48;;;;;;;4.97;2.80;;;;;;;5.63;63.33;99185.72;4303820;33;34595;-77
2022/01/20 12:33:22;;;;;;;6.30;3.03;;;;;;;5.47;64.43;99184.75;4304635;33;34991;-79
2022/01/20 12:35:52;;;;;;;8.75;2.67;;;;;;;5.73;63.81;99177.19;4296343;33;34342;-78
2022/01/20 12:38:26;;;;;;;5.18;3.15;;;;;;;5.82;62.77;99181.56;4291033;33;33421;-79
2022/01/20 12:41:00;;;;;;;4.95;2.80;;;;;;;6.28;61.16;99180.94;4298274;33;34691;-78
2022/01/20 12:43:53;;;;;;;6.35;2.42;;;;;;;5.70;63.03;99190.12;4305476;33;35133;-79
2022/01/20 12:46:33;;;;;;;5.85;3.12;;;;;;;5.85;62.17;99176.41;4304887;33;34441;-79
2022/01/20 12:49:08;;;;;;;4.82;2.80;;;;;;;6.11;61.93;99174.00;4304643;33;33035;-78
2022/01/20 12:51:41;;;;;;;7.43;2.95;;;;;;;5.94;62.62;99165.25;4304621;33;33907;-78
2022/01/20 12:54:11;;;;;;;6.15;3.03;;;;;;;5.59;63.33;99160.75;4305362;33;35129;-79